Cj Studdert — WDJ2968 — position and weather

sailwx.info

Track history (hours):
 
Tides and Currents Weather Stations Pressure Air Temp Water Temp Dewpoint Dewpoint Depression Visibility Wind Speed Wind Dir Waves Ship Positions

Cj Studdert

Owner: Shamrock Marine, LLC, Houston, TX. More information available from US FCC via Universal Licensing System and Coast Guard Vessel Documentation Center.

Last reported at 2018-Jun-24 22:30 UTC. Time now 2018-Jun-24 22:37 UTC.
Position N 29°41' W 094°59'.

Length 25 m; draft 3 m.

Type: Tug. MMSI: 367763490.

Date/timePositionNaut miles runAvg speedWind from/ knotsBaromVisibWave heightAir tempDewpointWater temp
2018-Jun-24 22:30N 29°41' W 094°59'4 7.5
2018-Jun-24 21:56N 29°44' W 095°03'4 0.1
2018-Jun-23 11:59N 29°46' W 095°07'0 0.0
2018-Jun-23 11:20N 29°46' W 095°07'0 0.0
2018-Jun-23 10:59N 29°46' W 095°07'0 0.0
2018-Jun-23 08:53N 29°46' W 095°07'0 0.0
2018-Jun-23 08:03N 29°46' W 095°07'0 0.0
2018-Jun-23 08:00N 29°46' W 095°07'0 0.0
2018-Jun-23 07:30N 29°46' W 095°07'0 0.0
2018-Jun-23 06:59N 29°46' W 095°07'0 0.0
2018-Jun-23 06:30N 29°46' W 095°07'0 0.0
2018-Jun-23 06:00N 29°46' W 095°07'1 1.9
2018-Jun-23 05:30N 29°45' W 095°06'1 1.1
2018-Jun-23 05:00N 29°46' W 095°05'1 3.0
2018-Jun-23 04:30N 29°45' W 095°04'2 4.9
2018-Jun-23 04:00N 29°44' W 095°02'2 5.0
2018-Jun-23 03:30N 29°42' W 094°60'3 5.4
2018-Jun-23 03:00N 29°39' W 094°58'3 5.4
2018-Jun-23 02:30N 29°37' W 094°57'3 6.0
2018-Jun-23 02:00N 29°34' W 094°55'3 5.7
2018-Jun-23 01:30N 29°32' W 094°54'2 5.0
2018-Jun-23 01:00N 29°30' W 094°52'3 5.2
2018-Jun-23 00:28N 29°27' W 094°51'2 5.0
2018-Jun-23 00:00N 29°25' W 094°50'3 5.0
2018-Jun-22 23:30N 29°23' W 094°48'2 3.1
2018-Jun-22 23:00N 29°22' W 094°50'2 3.4
2018-Jun-22 22:29N 29°23' W 094°52'0 0.0
2018-Jun-22 21:59N 29°23' W 094°52'0 0.0
2018-Jun-22 21:29N 29°23' W 094°52'0 0.0
2018-Jun-22 20:59N 29°23' W 094°52'0 0.0
2018-Jun-22 20:29N 29°23' W 094°52'0 0.0
2018-Jun-22 19:59N 29°23' W 094°52'0 0.0
2018-Jun-22 19:23N 29°23' W 094°52'0 0.0
2018-Jun-22 18:59N 29°23' W 094°52'0 0.0
2018-Jun-22 18:29N 29°23' W 094°52'0 0.0
2018-Jun-22 17:59N 29°23' W 094°52'0 0.0
2018-Jun-22 17:29N 29°23' W 094°52'0 0.0
2018-Jun-22 16:59N 29°23' W 094°52'0 0.0
2018-Jun-22 16:29N 29°23' W 094°52'0 0.0
2018-Jun-22 15:59N 29°23' W 094°52'0 0.0
2018-Jun-22 15:29N 29°23' W 094°52'0 0.0
2018-Jun-22 14:59N 29°23' W 094°52'0 0.0
2018-Jun-22 14:29N 29°23' W 094°52'0 0.0
2018-Jun-22 13:59N 29°23' W 094°52'0 0.0
2018-Jun-22 13:29N 29°23' W 094°52'0 0.0
2018-Jun-22 12:59N 29°23' W 094°52'0 0.0
2018-Jun-22 12:29N 29°23' W 094°52'0 0.0
2018-Jun-22 11:59N 29°23' W 094°52'0 0.0
2018-Jun-22 11:26N 29°23' W 094°52'0 0.0
2018-Jun-22 10:56N 29°23' W 094°52'0 0.0
2018-Jun-22 10:29N 29°23' W 094°52'0 0.0
2018-Jun-22 09:59N 29°23' W 094°52'0 0.0
2018-Jun-22 09:26N 29°23' W 094°52'0 0.0
2018-Jun-22 08:56N 29°23' W 094°52'0 0.0
2018-Jun-22 08:29N 29°23' W 094°52'0 0.0
2018-Jun-22 07:56N 29°23' W 094°52'0 0.0
2018-Jun-22 07:29N 29°23' W 094°52'0 0.0
2018-Jun-22 06:59N 29°23' W 094°52'0 0.0
2018-Jun-22 06:23N 29°23' W 094°52'0 0.0
2018-Jun-22 05:59N 29°23' W 094°52'0 0.0
2018-Jun-22 05:29N 29°23' W 094°52'0 0.0
2018-Jun-22 04:59N 29°23' W 094°52'0 0.0
2018-Jun-22 04:29N 29°23' W 094°52'0 0.0
2018-Jun-22 03:59N 29°23' W 094°52'0 0.0
2018-Jun-22 03:29N 29°23' W 094°52'0 0.0
2018-Jun-22 02:59N 29°23' W 094°52'0 0.0
2018-Jun-22 02:29N 29°23' W 094°52'0 0.0
2018-Jun-22 01:59N 29°23' W 094°52'0 0.0
2018-Jun-22 01:29N 29°23' W 094°52'0 0.0
2018-Jun-22 00:56N 29°23' W 094°52'0 0.0
2018-Jun-22 00:29N 29°23' W 094°52'0 0.0
2018-Jun-21 23:59N 29°23' W 094°52'0 0.0
2018-Jun-21 23:29N 29°23' W 094°52'0 0.0
2018-Jun-21 22:59N 29°23' W 094°52'0 0.0
2018-Jun-21 22:20N 29°23' W 094°52'0 0.0
2018-Jun-21 21:59N 29°23' W 094°52'0 0.0
2018-Jun-21 21:29N 29°23' W 094°52'0 0.0
2018-Jun-21 20:56N 29°23' W 094°52'0 0.0
2018-Jun-21 20:29N 29°23' W 094°52'0 0.0
2018-Jun-21 19:59N 29°23' W 094°52'0 0.0
2018-Jun-21 19:29N 29°23' W 094°52'0 0.0
2018-Jun-21 18:59N 29°23' W 094°52'0 0.0
2018-Jun-21 18:29N 29°23' W 094°52'0 0.0
2018-Jun-21 17:59N 29°23' W 094°52'0 0.0
2018-Jun-21 17:29N 29°23' W 094°52'0 0.0
2018-Jun-21 16:58N 29°23' W 094°52'0 0.1
2018-Jun-21 16:30N 29°23' W 094°52'0 0.1
2018-Jun-21 15:58N 29°23' W 094°52'0 0.0
2018-Jun-21 15:28N 29°23' W 094°52'0 0.0
2018-Jun-21 14:58N 29°23' W 094°52'0 0.0
2018-Jun-21 14:28N 29°23' W 094°52'0 0.0
2018-Jun-21 13:58N 29°23' W 094°52'0 0.0
2018-Jun-21 13:25N 29°23' W 094°52'0 0.2
2018-Jun-21 13:00N 29°23' W 094°52'1 2.7
2018-Jun-21 12:28N 29°22' W 094°54'0 0.0
2018-Jun-21 11:59N 29°22' W 094°54'0 0.0
2018-Jun-21 11:29N 29°22' W 094°54'0 0.0
2018-Jun-21 10:56N 29°22' W 094°54'0 0.0
2018-Jun-21 10:23N 29°22' W 094°54'0 0.0
2018-Jun-21 08:11N 29°22' W 094°54'0 0.0
2018-Jun-21 07:56N 29°22' W 094°54'0 0.0
2018-Jun-21 07:26N 29°22' W 094°54'0 0.0
2018-Jun-21 06:59N 29°22' W 094°54'0 0.0
2018-Jun-21 06:23N 29°22' W 094°54'0 0.0
2018-Jun-21 05:59N 29°22' W 094°54'0 0.0
2018-Jun-21 05:29N 29°22' W 094°54'0 0.0
2018-Jun-21 04:59N 29°22' W 094°54'0 0.0
2018-Jun-21 04:23N 29°22' W 094°54'0 0.0
2018-Jun-21 02:50N 29°22' W 094°54'0 0.0
2018-Jun-21 01:41N 29°22' W 094°54'0 0.0
2018-Jun-21 01:29N 29°22' W 094°54'0 0.0
2018-Jun-21 00:53N 29°22' W 094°54'0 0.0
2018-Jun-21 00:29N 29°22' W 094°54'0 0.0
2018-Jun-20 23:53N 29°22' W 094°54'0 0.0
2018-Jun-20 23:17N 29°22' W 094°54'0 0.0
2018-Jun-20 22:29N 29°22' W 094°54'0 0.0
2018-Jun-20 22:00N 29°22' W 094°54'1 2.6
2018-Jun-20 21:28N 29°23' W 094°52'0 0.0
2018-Jun-20 20:58N 29°23' W 094°52'0 0.0
2018-Jun-20 20:28N 29°23' W 094°52'0 0.0
2018-Jun-20 19:58N 29°23' W 094°52'0 0.0
2018-Jun-20 19:28N 29°23' W 094°52'0 0.0
2018-Jun-20 18:58N 29°23' W 094°52'0 0.0
2018-Jun-20 18:28N 29°23' W 094°52'0 0.0
2018-Jun-20 17:58N 29°23' W 094°52'0 0.0
2018-Jun-20 17:28N 29°23' W 094°52'0 0.0
2018-Jun-20 16:58N 29°23' W 094°52'0 0.0
2018-Jun-20 16:22N 29°23' W 094°52'0 0.0
2018-Jun-20 15:58N 29°23' W 094°52'0 0.0
2018-Jun-20 15:28N 29°23' W 094°52'0 0.0
2018-Jun-20 14:58N 29°23' W 094°52'0 0.0
2018-Jun-20 14:28N 29°23' W 094°52'0 0.0
2018-Jun-20 13:58N 29°23' W 094°52'0 0.0
2018-Jun-20 13:25N 29°23' W 094°52'0 0.0
2018-Jun-20 12:58N 29°23' W 094°52'0 0.0
2018-Jun-20 12:25N 29°23' W 094°52'0 0.0
2018-Jun-20 11:58N 29°23' W 094°52'0 0.0
2018-Jun-20 03:13N 29°23' W 094°52'0 0.0
2018-Jun-20 02:58N 29°23' W 094°52'0 0.0
2018-Jun-20 02:28N 29°23' W 094°52'0 0.0
2018-Jun-20 01:58N 29°23' W 094°52'0 0.0
2018-Jun-20 01:28N 29°23' W 094°52'0 0.1
2018-Jun-20 01:00N 29°23' W 094°52'1 2.4
2018-Jun-20 00:24N 29°22' W 094°54'0 0.0
2018-Jun-20 00:00N 29°22' W 094°54'0 0.0
2018-Jun-19 23:18N 29°22' W 094°54'0 0.0
2018-Jun-19 22:57N 29°22' W 094°54'0 0.0
2018-Jun-19 22:30N 29°22' W 094°54'0 0.0
2018-Jun-19 22:00N 29°22' W 094°54'0 0.0
2018-Jun-19 21:30N 29°22' W 094°54'0 0.0
2018-Jun-19 21:00N 29°22' W 094°54'0 0.0
2018-Jun-19 20:27N 29°22' W 094°54'0 0.0
2018-Jun-19 20:00N 29°22' W 094°54'0 0.0
2018-Jun-19 19:30N 29°22' W 094°54'0 0.0
2018-Jun-19 19:00N 29°22' W 094°54'0 0.0
2018-Jun-19 18:30N 29°22' W 094°54'0 0.0
2018-Jun-19 18:00N 29°22' W 094°54'0 0.0
2018-Jun-19 17:30N 29°22' W 094°54'0 0.1
2018-Jun-19 16:59N 29°22' W 094°53'0 0.0
2018-Jun-19 16:29N 29°22' W 094°53'0 0.0
2018-Jun-19 15:59N 29°22' W 094°53'0 0.0
2018-Jun-19 15:29N 29°22' W 094°53'0 0.0
2018-Jun-19 14:59N 29°22' W 094°53'0 0.0
2018-Jun-19 14:29N 29°22' W 094°53'0 0.0
2018-Jun-19 13:59N 29°22' W 094°53'0 0.0
2018-Jun-19 13:30N 29°22' W 094°53'1 2.9
2018-Jun-19 13:00N 29°23' W 094°52'0 0.2
2018-Jun-19 12:26N 29°23' W 094°52'0 0.0
2018-Jun-19 11:53N 29°23' W 094°52'0 0.0
2018-Jun-19 11:29N 29°23' W 094°52'0 0.0
2018-Jun-19 11:00N 29°23' W 094°52'0 0.0
2018-Jun-19 10:30N 29°23' W 094°52'0 0.0
2018-Jun-19 10:00N 29°23' W 094°52'0 0.0
2018-Jun-19 09:30N 29°23' W 094°52'0 0.0
2018-Jun-19 09:00N 29°23' W 094°52'0 0.0
2018-Jun-19 08:30N 29°23' W 094°52'0 0.0
2018-Jun-19 08:00N 29°23' W 094°52'0 0.0
2018-Jun-19 07:27N 29°23' W 094°52'0 0.0
2018-Jun-19 07:00N 29°23' W 094°52'0 0.0
2018-Jun-19 06:30N 29°23' W 094°52'0 0.0
2018-Jun-19 06:00N 29°23' W 094°52'0 0.0
2018-Jun-19 05:30N 29°23' W 094°52'0 0.0
2018-Jun-19 05:00N 29°23' W 094°52'0 0.0
2018-Jun-19 04:30N 29°23' W 094°52'0 0.0
2018-Jun-19 04:00N 29°23' W 094°52'0 0.0
2018-Jun-19 03:30N 29°23' W 094°52'0 0.0
2018-Jun-19 03:00N 29°23' W 094°52'0 0.0
2018-Jun-19 02:30N 29°23' W 094°52'1 1.7
2018-Jun-19 02:00N 29°23' W 094°53'1 2.0
2018-Jun-19 01:30N 29°22' W 094°53'0 0.0
2018-Jun-19 01:00N 29°22' W 094°53'0 0.0
2018-Jun-19 00:30N 29°22' W 094°53'0 0.0
2018-Jun-19 00:00N 29°22' W 094°53'0 0.0
2018-Jun-18 23:30N 29°22' W 094°53'0 0.0
2018-Jun-18 23:00N 29°22' W 094°53'0 0.0
2018-Jun-18 22:27N 29°22' W 094°53'0 0.0
2018-Jun-18 22:00N 29°22' W 094°53'0 0.0
2018-Jun-18 21:30N 29°22' W 094°53'1 2.5
2018-Jun-18 20:57N 29°23' W 094°52'0 0.1
2018-Jun-18 20:29N 29°23' W 094°52'0 0.0
2018-Jun-18 19:59N 29°23' W 094°52'0 0.1
2018-Jun-18 19:29N 29°23' W 094°52'1 2.4
2018-Jun-18 18:59N 29°22' W 094°53'0 0.5
2018-Jun-18 18:30N 29°22' W 094°54'0 0.0
2018-Jun-18 18:00N 29°22' W 094°54'0 0.0
2018-Jun-18 17:27N 29°22' W 094°54'0 0.0
2018-Jun-18 17:00N 29°22' W 094°54'0 0.0
2018-Jun-18 16:30N 29°22' W 094°54'0 0.0
2018-Jun-18 16:00N 29°22' W 094°54'0 0.0
2018-Jun-18 15:30N 29°22' W 094°54'0 0.0
2018-Jun-18 15:00N 29°22' W 094°54'0 0.0
2018-Jun-18 14:30N 29°22' W 094°54'0 0.0
2018-Jun-18 14:00N 29°22' W 094°54'0 0.0
2018-Jun-18 13:30N 29°22' W 094°54'0 1.0
2018-Jun-18 13:00N 29°22' W 094°53'1 2.1
2018-Jun-18 12:30N 29°23' W 094°52'0 0.0
2018-Jun-18 12:00N 29°23' W 094°52'0 0.0
2018-Jun-18 11:24N 29°23' W 094°52'0 0.0
2018-Jun-18 11:00N 29°23' W 094°52'0 0.0
2018-Jun-18 10:30N 29°23' W 094°52'0 0.0
2018-Jun-18 10:00N 29°23' W 094°52'0 0.0
2018-Jun-18 09:30N 29°23' W 094°52'0 0.0
2018-Jun-18 09:00N 29°23' W 094°52'0 0.0
2018-Jun-18 08:30N 29°23' W 094°52'0 0.0
2018-Jun-18 08:00N 29°23' W 094°52'0 0.0
2018-Jun-18 07:30N 29°23' W 094°52'0 0.0
2018-Jun-18 07:00N 29°23' W 094°52'0 0.0
2018-Jun-18 06:30N 29°23' W 094°52'0 0.0
2018-Jun-18 06:00N 29°23' W 094°52'0 0.0
2018-Jun-18 05:30N 29°23' W 094°52'0 0.0
2018-Jun-18 05:00N 29°23' W 094°52'0 0.0
2018-Jun-18 04:30N 29°23' W 094°52'0 0.0
2018-Jun-18 04:00N 29°23' W 094°52'0 0.0
2018-Jun-18 03:30N 29°23' W 094°52'0 0.0
2018-Jun-18 03:00N 29°23' W 094°52'0 0.0
2018-Jun-18 02:30N 29°23' W 094°52'0 0.0
2018-Jun-18 02:00N 29°23' W 094°52'0 0.0
2018-Jun-18 01:30N 29°23' W 094°52'0 0.1
2018-Jun-18 01:00N 29°23' W 094°52'0 0.3
2018-Jun-18 00:30N 29°23' W 094°52'1 2.2
2018-Jun-17 23:59N 29°22' W 094°53'0 0.0
2018-Jun-17 18:59N 29°22' W 094°53'0 0.0
2018-Jun-17 18:14N 29°22' W 094°53'0 0.0
2018-Jun-17 17:53N 29°22' W 094°53'0 0.0
2018-Jun-17 17:14N 29°22' W 094°53'0 0.0
2018-Jun-17 16:59N 29°22' W 094°53'0 0.0
2018-Jun-17 16:23N 29°22' W 094°53'0 0.0
2018-Jun-17 15:56N 29°22' W 094°53'0 0.0
2018-Jun-17 15:29N 29°22' W 094°53'0 0.0
2018-Jun-17 14:53N 29°22' W 094°53'0 0.0
2018-Jun-16 18:02N 29°22' W 094°53'0 0.0
2018-Jun-16 17:59N 29°22' W 094°53'0 0.0
2018-Jun-16 17:23N 29°22' W 094°53'0 0.0
2018-Jun-16 16:59N 29°22' W 094°53'0 0.0
2018-Jun-16 16:29N 29°22' W 094°53'0 0.0
2018-Jun-16 15:50N 29°22' W 094°53'0 0.0
2018-Jun-16 15:29N 29°22' W 094°53'0 0.0
2018-Jun-16 14:59N 29°22' W 094°53'0 0.0
2018-Jun-16 14:26N 29°22' W 094°53'0 0.0
2018-Jun-16 13:59N 29°22' W 094°53'0 0.0
2018-Jun-16 13:26N 29°22' W 094°53'0 0.0
2018-Jun-16 12:59N 29°22' W 094°53'0 0.0
2018-Jun-16 12:29N 29°22' W 094°53'0 0.0
2018-Jun-16 11:56N 29°22' W 094°53'0 0.0
2018-Jun-16 09:02N 29°22' W 094°53'0 0.0
2018-Jun-16 08:59N 29°22' W 094°53'0 0.0
2018-Jun-16 08:20N 29°22' W 094°53'0 0.0
2018-Jun-16 07:50N 29°22' W 094°53'0 0.0
2018-Jun-16 07:29N 29°22' W 094°53'0 0.0
2018-Jun-16 06:56N 29°22' W 094°53'0 0.0
2018-Jun-16 06:29N 29°22' W 094°53'0 0.0
2018-Jun-16 05:56N 29°22' W 094°53'0 0.0
2018-Jun-16 05:26N 29°22' W 094°53'0 0.0
2018-Jun-16 04:59N 29°22' W 094°53'0 0.0
2018-Jun-16 04:29N 29°22' W 094°53'0 0.0
2018-Jun-16 03:59N 29°22' W 094°53'0 0.0
2018-Jun-16 03:29N 29°22' W 094°53'0 0.1
2018-Jun-16 02:37N 29°22' W 094°53'0 0.1
2018-Jun-16 02:22N 29°22' W 094°53'0 0.4
2018-Jun-16 01:59N 29°22' W 094°53'1 2.2
2018-Jun-16 01:30N 29°23' W 094°52'0 0.2
2018-Jun-16 01:00N 29°23' W 094°52'0 0.0
2018-Jun-16 00:30N 29°23' W 094°52'0 0.0
2018-Jun-16 00:00N 29°23' W 094°52'0 0.0
2018-Jun-15 23:30N 29°23' W 094°52'0 0.0
2018-Jun-15 23:00N 29°23' W 094°52'0 0.0
2018-Jun-15 22:30N 29°23' W 094°52'0 0.0
2018-Jun-15 22:00N 29°23' W 094°52'1 2.2
2018-Jun-15 21:30N 29°22' W 094°53'1 2.2
2018-Jun-15 21:00N 29°23' W 094°52'0 0.1
2018-Jun-15 20:28N 29°23' W 094°52'0 0.0
2018-Jun-15 19:49N 29°23' W 094°52'0 0.0
2018-Jun-15 19:25N 29°23' W 094°52'0 0.0
2018-Jun-15 18:55N 29°23' W 094°52'0 0.0
2018-Jun-15 18:28N 29°23' W 094°52'0 0.0
2018-Jun-15 17:58N 29°23' W 094°52'0 0.0
2018-Jun-15 17:28N 29°23' W 094°52'0 0.0
2018-Jun-15 16:52N 29°23' W 094°52'1 3.2
2018-Jun-15 16:30N 29°22' W 094°53'0 0.5
2018-Jun-15 15:58N 29°22' W 094°53'0 0.0
2018-Jun-15 14:55N 29°22' W 094°53'0 0.0
2018-Jun-15 14:28N 29°22' W 094°53'0 0.0
2018-Jun-15 13:58N 29°22' W 094°53'0 0.0
2018-Jun-15 13:28N 29°22' W 094°53'0 0.0
2018-Jun-15 12:55N 29°22' W 094°53'0 0.0
2018-Jun-15 12:28N 29°22' W 094°53'1 2.9
2018-Jun-15 12:00N 29°23' W 094°52'0 0.0
2018-Jun-15 11:30N 29°23' W 094°52'0 0.0
2018-Jun-15 11:00N 29°23' W 094°52'0 0.0
2018-Jun-15 10:26N 29°23' W 094°52'0 0.0
2018-Jun-15 09:57N 29°23' W 094°52'0 0.0
2018-Jun-15 09:27N 29°23' W 094°52'0 0.0
2018-Jun-15 09:00N 29°23' W 094°52'0 0.0
2018-Jun-15 08:30N 29°23' W 094°52'0 0.0
2018-Jun-15 08:00N 29°23' W 094°52'0 0.0
2018-Jun-15 07:30N 29°23' W 094°52'0 0.0
2018-Jun-15 06:57N 29°23' W 094°52'0 0.0
2018-Jun-15 06:24N 29°23' W 094°52'0 0.0
2018-Jun-15 06:00N 29°23' W 094°52'0 0.0
2018-Jun-15 05:30N 29°23' W 094°52'0 0.0
2018-Jun-15 04:57N 29°23' W 094°52'0 0.0
2018-Jun-15 04:29N 29°23' W 094°52'0 0.0
2018-Jun-15 04:00N 29°23' W 094°52'0 0.0
2018-Jun-15 03:30N 29°23' W 094°52'0 0.0
2018-Jun-15 02:59N 29°23' W 094°52'0 0.0
2018-Jun-15 02:30N 29°23' W 094°52'0 0.0
2018-Jun-15 02:00N 29°23' W 094°52'0 0.4
2018-Jun-15 01:28N 29°23' W 094°52'0 0.4
2018-Jun-15 00:55N 29°23' W 094°52'0 0.0
2018-Jun-15 00:28N 29°23' W 094°52'0 0.0
2018-Jun-14 23:58N 29°23' W 094°52'0 0.0
2018-Jun-14 23:29N 29°23' W 094°52'0 0.0
2018-Jun-14 22:59N 29°23' W 094°52'  
Track history (hours):
 
Tides and Currents Weather Stations Pressure Air Temp Water Temp Dewpoint Dewpoint Depression Visibility Wind Speed Wind Dir Waves Ship Positions

Cj Studdert

Owner: Shamrock Marine, LLC, Houston, TX. More information available from US FCC via Universal Licensing System and Coast Guard Vessel Documentation Center.

Last reported at 2018-Jun-24 22:30 UTC. Time now 2018-Jun-24 22:37 UTC.
Position N 29°41' W 094°59'.

Length 25 m; draft 3 m.

Type: Tug. MMSI: 367763490.

Date/timePositionNaut miles runAvg speedWind from/ knotsBaromVisibWave heightAir tempDewpointWater temp
2018-Jun-24 22:30N 29°41' W 094°59'4 7.5
2018-Jun-24 21:56N 29°44' W 095°03'4 0.1
2018-Jun-23 11:59N 29°46' W 095°07'0 0.0
2018-Jun-23 11:20N 29°46' W 095°07'0 0.0
2018-Jun-23 10:59N 29°46' W 095°07'0 0.0
2018-Jun-23 08:53N 29°46' W 095°07'0 0.0
2018-Jun-23 08:03N 29°46' W 095°07'0 0.0
2018-Jun-23 08:00N 29°46' W 095°07'0 0.0
2018-Jun-23 07:30N 29°46' W 095°07'0 0.0
2018-Jun-23 06:59N 29°46' W 095°07'0 0.0
2018-Jun-23 06:30N 29°46' W 095°07'0 0.0
2018-Jun-23 06:00N 29°46' W 095°07'1 1.9
2018-Jun-23 05:30N 29°45' W 095°06'1 1.1
2018-Jun-23 05:00N 29°46' W 095°05'1 3.0
2018-Jun-23 04:30N 29°45' W 095°04'2 4.9
2018-Jun-23 04:00N 29°44' W 095°02'2 5.0
2018-Jun-23 03:30N 29°42' W 094°60'3 5.4
2018-Jun-23 03:00N 29°39' W 094°58'3 5.4
2018-Jun-23 02:30N 29°37' W 094°57'3 6.0
2018-Jun-23 02:00N 29°34' W 094°55'3 5.7
2018-Jun-23 01:30N 29°32' W 094°54'2 5.0
2018-Jun-23 01:00N 29°30' W 094°52'3 5.2
2018-Jun-23 00:28N 29°27' W 094°51'2 5.0
2018-Jun-23 00:00N 29°25' W 094°50'3 5.0
2018-Jun-22 23:30N 29°23' W 094°48'2 3.1
2018-Jun-22 23:00N 29°22' W 094°50'2 3.4
2018-Jun-22 22:29N 29°23' W 094°52'0 0.0
2018-Jun-22 21:59N 29°23' W 094°52'0 0.0
2018-Jun-22 21:29N 29°23' W 094°52'0 0.0
2018-Jun-22 20:59N 29°23' W 094°52'0 0.0
2018-Jun-22 20:29N 29°23' W 094°52'0 0.0
2018-Jun-22 19:59N 29°23' W 094°52'0 0.0
2018-Jun-22 19:23N 29°23' W 094°52'0 0.0
2018-Jun-22 18:59N 29°23' W 094°52'0 0.0
2018-Jun-22 18:29N 29°23' W 094°52'0 0.0
2018-Jun-22 17:59N 29°23' W 094°52'0 0.0
2018-Jun-22 17:29N 29°23' W 094°52'0 0.0
2018-Jun-22 16:59N 29°23' W 094°52'0 0.0
2018-Jun-22 16:29N 29°23' W 094°52'0 0.0
2018-Jun-22 15:59N 29°23' W 094°52'0 0.0
2018-Jun-22 15:29N 29°23' W 094°52'0 0.0
2018-Jun-22 14:59N 29°23' W 094°52'0 0.0
2018-Jun-22 14:29N 29°23' W 094°52'0 0.0
2018-Jun-22 13:59N 29°23' W 094°52'0 0.0
2018-Jun-22 13:29N 29°23' W 094°52'0 0.0
2018-Jun-22 12:59N 29°23' W 094°52'0 0.0
2018-Jun-22 12:29N 29°23' W 094°52'0 0.0
2018-Jun-22 11:59N 29°23' W 094°52'0 0.0
2018-Jun-22 11:26N 29°23' W 094°52'0 0.0
2018-Jun-22 10:56N 29°23' W 094°52'0 0.0
2018-Jun-22 10:29N 29°23' W 094°52'0 0.0
2018-Jun-22 09:59N 29°23' W 094°52'0 0.0
2018-Jun-22 09:26N 29°23' W 094°52'0 0.0
2018-Jun-22 08:56N 29°23' W 094°52'0 0.0
2018-Jun-22 08:29N 29°23' W 094°52'0 0.0
2018-Jun-22 07:56N 29°23' W 094°52'0 0.0
2018-Jun-22 07:29N 29°23' W 094°52'0 0.0
2018-Jun-22 06:59N 29°23' W 094°52'0 0.0
2018-Jun-22 06:23N 29°23' W 094°52'0 0.0
2018-Jun-22 05:59N 29°23' W 094°52'0 0.0
2018-Jun-22 05:29N 29°23' W 094°52'0 0.0
2018-Jun-22 04:59N 29°23' W 094°52'0 0.0
2018-Jun-22 04:29N 29°23' W 094°52'0 0.0
2018-Jun-22 03:59N 29°23' W 094°52'0 0.0
2018-Jun-22 03:29N 29°23' W 094°52'0 0.0
2018-Jun-22 02:59N 29°23' W 094°52'0 0.0
2018-Jun-22 02:29N 29°23' W 094°52'0 0.0
2018-Jun-22 01:59N 29°23' W 094°52'0 0.0
2018-Jun-22 01:29N 29°23' W 094°52'0 0.0
2018-Jun-22 00:56N 29°23' W 094°52'0 0.0
2018-Jun-22 00:29N 29°23' W 094°52'0 0.0
2018-Jun-21 23:59N 29°23' W 094°52'0 0.0
2018-Jun-21 23:29N 29°23' W 094°52'0 0.0
2018-Jun-21 22:59N 29°23' W 094°52'0 0.0
2018-Jun-21 22:20N 29°23' W 094°52'0 0.0
2018-Jun-21 21:59N 29°23' W 094°52'0 0.0
2018-Jun-21 21:29N 29°23' W 094°52'0 0.0
2018-Jun-21 20:56N 29°23' W 094°52'0 0.0
2018-Jun-21 20:29N 29°23' W 094°52'0 0.0
2018-Jun-21 19:59N 29°23' W 094°52'0 0.0
2018-Jun-21 19:29N 29°23' W 094°52'0 0.0
2018-Jun-21 18:59N 29°23' W 094°52'0 0.0
2018-Jun-21 18:29N 29°23' W 094°52'0 0.0
2018-Jun-21 17:59N 29°23' W 094°52'0 0.0
2018-Jun-21 17:29N 29°23' W 094°52'0 0.0
2018-Jun-21 16:58N 29°23' W 094°52'0 0.1
2018-Jun-21 16:30N 29°23' W 094°52'0 0.1
2018-Jun-21 15:58N 29°23' W 094°52'0 0.0
2018-Jun-21 15:28N 29°23' W 094°52'0 0.0
2018-Jun-21 14:58N 29°23' W 094°52'0 0.0
2018-Jun-21 14:28N 29°23' W 094°52'0 0.0
2018-Jun-21 13:58N 29°23' W 094°52'0 0.0
2018-Jun-21 13:25N 29°23' W 094°52'0 0.2
2018-Jun-21 13:00N 29°23' W 094°52'1 2.7
2018-Jun-21 12:28N 29°22' W 094°54'0 0.0
2018-Jun-21 11:59N 29°22' W 094°54'0 0.0
2018-Jun-21 11:29N 29°22' W 094°54'0 0.0
2018-Jun-21 10:56N 29°22' W 094°54'0 0.0
2018-Jun-21 10:23N 29°22' W 094°54'0 0.0
2018-Jun-21 08:11N 29°22' W 094°54'0 0.0
2018-Jun-21 07:56N 29°22' W 094°54'0 0.0
2018-Jun-21 07:26N 29°22' W 094°54'0 0.0
2018-Jun-21 06:59N 29°22' W 094°54'0 0.0
2018-Jun-21 06:23N 29°22' W 094°54'0 0.0
2018-Jun-21 05:59N 29°22' W 094°54'0 0.0
2018-Jun-21 05:29N 29°22' W 094°54'0 0.0
2018-Jun-21 04:59N 29°22' W 094°54'0 0.0
2018-Jun-21 04:23N 29°22' W 094°54'0 0.0
2018-Jun-21 02:50N 29°22' W 094°54'0 0.0
2018-Jun-21 01:41N 29°22' W 094°54'0 0.0
2018-Jun-21 01:29N 29°22' W 094°54'0 0.0
2018-Jun-21 00:53N 29°22' W 094°54'0 0.0
2018-Jun-21 00:29N 29°22' W 094°54'0 0.0
2018-Jun-20 23:53N 29°22' W 094°54'0 0.0
2018-Jun-20 23:17N 29°22' W 094°54'0 0.0
2018-Jun-20 22:29N 29°22' W 094°54'0 0.0
2018-Jun-20 22:00N 29°22' W 094°54'1 2.6
2018-Jun-20 21:28N 29°23' W 094°52'0 0.0
2018-Jun-20 20:58N 29°23' W 094°52'0 0.0
2018-Jun-20 20:28N 29°23' W 094°52'0 0.0
2018-Jun-20 19:58N 29°23' W 094°52'0 0.0
2018-Jun-20 19:28N 29°23' W 094°52'0 0.0
2018-Jun-20 18:58N 29°23' W 094°52'0 0.0
2018-Jun-20 18:28N 29°23' W 094°52'0 0.0
2018-Jun-20 17:58N 29°23' W 094°52'0 0.0
2018-Jun-20 17:28N 29°23' W 094°52'0 0.0
2018-Jun-20 16:58N 29°23' W 094°52'0 0.0
2018-Jun-20 16:22N 29°23' W 094°52'0 0.0
2018-Jun-20 15:58N 29°23' W 094°52'0 0.0
2018-Jun-20 15:28N 29°23' W 094°52'0 0.0
2018-Jun-20 14:58N 29°23' W 094°52'0 0.0
2018-Jun-20 14:28N 29°23' W 094°52'0 0.0
2018-Jun-20 13:58N 29°23' W 094°52'0 0.0
2018-Jun-20 13:25N 29°23' W 094°52'0 0.0
2018-Jun-20 12:58N 29°23' W 094°52'0 0.0
2018-Jun-20 12:25N 29°23' W 094°52'0 0.0
2018-Jun-20 11:58N 29°23' W 094°52'0 0.0
2018-Jun-20 03:13N 29°23' W 094°52'0 0.0
2018-Jun-20 02:58N 29°23' W 094°52'0 0.0
2018-Jun-20 02:28N 29°23' W 094°52'0 0.0
2018-Jun-20 01:58N 29°23' W 094°52'0 0.0
2018-Jun-20 01:28N 29°23' W 094°52'0 0.1
2018-Jun-20 01:00N 29°23' W 094°52'1 2.4
2018-Jun-20 00:24N 29°22' W 094°54'0 0.0
2018-Jun-20 00:00N 29°22' W 094°54'0 0.0
2018-Jun-19 23:18N 29°22' W 094°54'0 0.0
2018-Jun-19 22:57N 29°22' W 094°54'0 0.0
2018-Jun-19 22:30N 29°22' W 094°54'0 0.0
2018-Jun-19 22:00N 29°22' W 094°54'0 0.0
2018-Jun-19 21:30N 29°22' W 094°54'0 0.0
2018-Jun-19 21:00N 29°22' W 094°54'0 0.0
2018-Jun-19 20:27N 29°22' W 094°54'0 0.0
2018-Jun-19 20:00N 29°22' W 094°54'0 0.0
2018-Jun-19 19:30N 29°22' W 094°54'0 0.0
2018-Jun-19 19:00N 29°22' W 094°54'0 0.0
2018-Jun-19 18:30N 29°22' W 094°54'0 0.0
2018-Jun-19 18:00N 29°22' W 094°54'0 0.0
2018-Jun-19 17:30N 29°22' W 094°54'0 0.1
2018-Jun-19 16:59N 29°22' W 094°53'0 0.0
2018-Jun-19 16:29N 29°22' W 094°53'0 0.0
2018-Jun-19 15:59N 29°22' W 094°53'0 0.0
2018-Jun-19 15:29N 29°22' W 094°53'0 0.0
2018-Jun-19 14:59N 29°22' W 094°53'0 0.0
2018-Jun-19 14:29N 29°22' W 094°53'0 0.0
2018-Jun-19 13:59N 29°22' W 094°53'0 0.0
2018-Jun-19 13:30N 29°22' W 094°53'1 2.9
2018-Jun-19 13:00N 29°23' W 094°52'0 0.2
2018-Jun-19 12:26N 29°23' W 094°52'0 0.0
2018-Jun-19 11:53N 29°23' W 094°52'0 0.0
2018-Jun-19 11:29N 29°23' W 094°52'0 0.0
2018-Jun-19 11:00N 29°23' W 094°52'0 0.0
2018-Jun-19 10:30N 29°23' W 094°52'0 0.0
2018-Jun-19 10:00N 29°23' W 094°52'0 0.0
2018-Jun-19 09:30N 29°23' W 094°52'0 0.0
2018-Jun-19 09:00N 29°23' W 094°52'0 0.0
2018-Jun-19 08:30N 29°23' W 094°52'0 0.0
2018-Jun-19 08:00N 29°23' W 094°52'0 0.0
2018-Jun-19 07:27N 29°23' W 094°52'0 0.0
2018-Jun-19 07:00N 29°23' W 094°52'0 0.0
2018-Jun-19 06:30N 29°23' W 094°52'0 0.0
2018-Jun-19 06:00N 29°23' W 094°52'0 0.0
2018-Jun-19 05:30N 29°23' W 094°52'0 0.0
2018-Jun-19 05:00N 29°23' W 094°52'0 0.0
2018-Jun-19 04:30N 29°23' W 094°52'0 0.0
2018-Jun-19 04:00N 29°23' W 094°52'0 0.0
2018-Jun-19 03:30N 29°23' W 094°52'0 0.0
2018-Jun-19 03:00N 29°23' W 094°52'0 0.0
2018-Jun-19 02:30N 29°23' W 094°52'1 1.7
2018-Jun-19 02:00N 29°23' W 094°53'1 2.0
2018-Jun-19 01:30N 29°22' W 094°53'0 0.0
2018-Jun-19 01:00N 29°22' W 094°53'0 0.0
2018-Jun-19 00:30N 29°22' W 094°53'0 0.0
2018-Jun-19 00:00N 29°22' W 094°53'0 0.0
2018-Jun-18 23:30N 29°22' W 094°53'0 0.0
2018-Jun-18 23:00N 29°22' W 094°53'0 0.0
2018-Jun-18 22:27N 29°22' W 094°53'0 0.0
2018-Jun-18 22:00N 29°22' W 094°53'0 0.0
2018-Jun-18 21:30N 29°22' W 094°53'1 2.5
2018-Jun-18 20:57N 29°23' W 094°52'0 0.1
2018-Jun-18 20:29N 29°23' W 094°52'0 0.0
2018-Jun-18 19:59N 29°23' W 094°52'0 0.1
2018-Jun-18 19:29N 29°23' W 094°52'1 2.4
2018-Jun-18 18:59N 29°22' W 094°53'0 0.5
2018-Jun-18 18:30N 29°22' W 094°54'0 0.0
2018-Jun-18 18:00N 29°22' W 094°54'0 0.0
2018-Jun-18 17:27N 29°22' W 094°54'0 0.0
2018-Jun-18 17:00N 29°22' W 094°54'0 0.0
2018-Jun-18 16:30N 29°22' W 094°54'0 0.0
2018-Jun-18 16:00N 29°22' W 094°54'0 0.0
2018-Jun-18 15:30N 29°22' W 094°54'0 0.0
2018-Jun-18 15:00N 29°22' W 094°54'0 0.0
2018-Jun-18 14:30N 29°22' W 094°54'0 0.0
2018-Jun-18 14:00N 29°22' W 094°54'0 0.0
2018-Jun-18 13:30N 29°22' W 094°54'0 1.0
2018-Jun-18 13:00N 29°22' W 094°53'1 2.1
2018-Jun-18 12:30N 29°23' W 094°52'0 0.0
2018-Jun-18 12:00N 29°23' W 094°52'0 0.0
2018-Jun-18 11:24N 29°23' W 094°52'0 0.0
2018-Jun-18 11:00N 29°23' W 094°52'0 0.0
2018-Jun-18 10:30N 29°23' W 094°52'0 0.0
2018-Jun-18 10:00N 29°23' W 094°52'0 0.0
2018-Jun-18 09:30N 29°23' W 094°52'0 0.0
2018-Jun-18 09:00N 29°23' W 094°52'0 0.0
2018-Jun-18 08:30N 29°23' W 094°52'0 0.0
2018-Jun-18 08:00N 29°23' W 094°52'0 0.0
2018-Jun-18 07:30N 29°23' W 094°52'0 0.0
2018-Jun-18 07:00N 29°23' W 094°52'0 0.0
2018-Jun-18 06:30N 29°23' W 094°52'0 0.0
2018-Jun-18 06:00N 29°23' W 094°52'0 0.0
2018-Jun-18 05:30N 29°23' W 094°52'0 0.0
2018-Jun-18 05:00N 29°23' W 094°52'0 0.0
2018-Jun-18 04:30N 29°23' W 094°52'0 0.0
2018-Jun-18 04:00N 29°23' W 094°52'0 0.0
2018-Jun-18 03:30N 29°23' W 094°52'0 0.0
2018-Jun-18 03:00N 29°23' W 094°52'0 0.0
2018-Jun-18 02:30N 29°23' W 094°52'0 0.0
2018-Jun-18 02:00N 29°23' W 094°52'0 0.0
2018-Jun-18 01:30N 29°23' W 094°52'0 0.1
2018-Jun-18 01:00N 29°23' W 094°52'0 0.3
2018-Jun-18 00:30N 29°23' W 094°52'1 2.2
2018-Jun-17 23:59N 29°22' W 094°53'0 0.0
2018-Jun-17 18:59N 29°22' W 094°53'0 0.0
2018-Jun-17 18:14N 29°22' W 094°53'0 0.0
2018-Jun-17 17:53N 29°22' W 094°53'0 0.0
2018-Jun-17 17:14N 29°22' W 094°53'0 0.0
2018-Jun-17 16:59N 29°22' W 094°53'0 0.0
2018-Jun-17 16:23N 29°22' W 094°53'0 0.0
2018-Jun-17 15:56N 29°22' W 094°53'0 0.0
2018-Jun-17 15:29N 29°22' W 094°53'0 0.0
2018-Jun-17 14:53N 29°22' W 094°53'0 0.0
2018-Jun-16 18:02N 29°22' W 094°53'0 0.0
2018-Jun-16 17:59N 29°22' W 094°53'0 0.0
2018-Jun-16 17:23N 29°22' W 094°53'0 0.0
2018-Jun-16 16:59N 29°22' W 094°53'0 0.0
2018-Jun-16 16:29N 29°22' W 094°53'0 0.0
2018-Jun-16 15:50N 29°22' W 094°53'0 0.0
2018-Jun-16 15:29N 29°22' W 094°53'0 0.0
2018-Jun-16 14:59N 29°22' W 094°53'0 0.0
2018-Jun-16 14:26N 29°22' W 094°53'0 0.0
2018-Jun-16 13:59N 29°22' W 094°53'0 0.0
2018-Jun-16 13:26N 29°22' W 094°53'0 0.0
2018-Jun-16 12:59N 29°22' W 094°53'0 0.0
2018-Jun-16 12:29N 29°22' W 094°53'0 0.0
2018-Jun-16 11:56N 29°22' W 094°53'0 0.0
2018-Jun-16 09:02N 29°22' W 094°53'0 0.0
2018-Jun-16 08:59N 29°22' W 094°53'0 0.0
2018-Jun-16 08:20N 29°22' W 094°53'0 0.0
2018-Jun-16 07:50N 29°22' W 094°53'0 0.0
2018-Jun-16 07:29N 29°22' W 094°53'0 0.0
2018-Jun-16 06:56N 29°22' W 094°53'0 0.0
2018-Jun-16 06:29N 29°22' W 094°53'0 0.0
2018-Jun-16 05:56N 29°22' W 094°53'0 0.0
2018-Jun-16 05:26N 29°22' W 094°53'0 0.0
2018-Jun-16 04:59N 29°22' W 094°53'0 0.0
2018-Jun-16 04:29N 29°22' W 094°53'0 0.0
2018-Jun-16 03:59N 29°22' W 094°53'0 0.0
2018-Jun-16 03:29N 29°22' W 094°53'0 0.1
2018-Jun-16 02:37N 29°22' W 094°53'0 0.1
2018-Jun-16 02:22N 29°22' W 094°53'0 0.4
2018-Jun-16 01:59N 29°22' W 094°53'1 2.2
2018-Jun-16 01:30N 29°23' W 094°52'0 0.2
2018-Jun-16 01:00N 29°23' W 094°52'0 0.0
2018-Jun-16 00:30N 29°23' W 094°52'0 0.0
2018-Jun-16 00:00N 29°23' W 094°52'0 0.0
2018-Jun-15 23:30N 29°23' W 094°52'0 0.0
2018-Jun-15 23:00N 29°23' W 094°52'0 0.0
2018-Jun-15 22:30N 29°23' W 094°52'0 0.0
2018-Jun-15 22:00N 29°23' W 094°52'1 2.2
2018-Jun-15 21:30N 29°22' W 094°53'1 2.2
2018-Jun-15 21:00N 29°23' W 094°52'0 0.1
2018-Jun-15 20:28N 29°23' W 094°52'0 0.0
2018-Jun-15 19:49N 29°23' W 094°52'0 0.0
2018-Jun-15 19:25N 29°23' W 094°52'0 0.0
2018-Jun-15 18:55N 29°23' W 094°52'0 0.0
2018-Jun-15 18:28N 29°23' W 094°52'0 0.0
2018-Jun-15 17:58N 29°23' W 094°52'0 0.0
2018-Jun-15 17:28N 29°23' W 094°52'0 0.0
2018-Jun-15 16:52N 29°23' W 094°52'1 3.2
2018-Jun-15 16:30N 29°22' W 094°53'0 0.5
2018-Jun-15 15:58N 29°22' W 094°53'0 0.0
2018-Jun-15 14:55N 29°22' W 094°53'0 0.0
2018-Jun-15 14:28N 29°22' W 094°53'0 0.0
2018-Jun-15 13:58N 29°22' W 094°53'0 0.0
2018-Jun-15 13:28N 29°22' W 094°53'0 0.0
2018-Jun-15 12:55N 29°22' W 094°53'0 0.0
2018-Jun-15 12:28N 29°22' W 094°53'1 2.9
2018-Jun-15 12:00N 29°23' W 094°52'0 0.0
2018-Jun-15 11:30N 29°23' W 094°52'0 0.0
2018-Jun-15 11:00N 29°23' W 094°52'0 0.0
2018-Jun-15 10:26N 29°23' W 094°52'0 0.0
2018-Jun-15 09:57N 29°23' W 094°52'0 0.0
2018-Jun-15 09:27N 29°23' W 094°52'0 0.0
2018-Jun-15 09:00N 29°23' W 094°52'0 0.0
2018-Jun-15 08:30N 29°23' W 094°52'0 0.0
2018-Jun-15 08:00N 29°23' W 094°52'0 0.0
2018-Jun-15 07:30N 29°23' W 094°52'0 0.0
2018-Jun-15 06:57N 29°23' W 094°52'0 0.0
2018-Jun-15 06:24N 29°23' W 094°52'0 0.0
2018-Jun-15 06:00N 29°23' W 094°52'0 0.0
2018-Jun-15 05:30N 29°23' W 094°52'0 0.0
2018-Jun-15 04:57N 29°23' W 094°52'0 0.0
2018-Jun-15 04:29N 29°23' W 094°52'0 0.0
2018-Jun-15 04:00N 29°23' W 094°52'0 0.0
2018-Jun-15 03:30N 29°23' W 094°52'0 0.0
2018-Jun-15 02:59N 29°23' W 094°52'0 0.0
2018-Jun-15 02:30N 29°23' W 094°52'0 0.0
2018-Jun-15 02:00N 29°23' W 094°52'0 0.4
2018-Jun-15 01:28N 29°23' W 094°52'0 0.4
2018-Jun-15 00:55N 29°23' W 094°52'0 0.0
2018-Jun-15 00:28N 29°23' W 094°52'0 0.0
2018-Jun-14 23:58N 29°23' W 094°52'0 0.0
2018-Jun-14 23:29N 29°23' W 094°52'0 0.0
2018-Jun-14 22:59N 29°23' W 094°52'  

Dump ship's entire track history